createdAt,value
2023-02-11T00:01:01.253Z,103141.13
2023-02-11T00:03:29.464Z,103142.19
2023-02-11T00:06:00.305Z,103142.03
2023-02-11T00:08:28.142Z,103138.41
2023-02-11T00:10:56.367Z,103139.47
2023-02-11T00:13:24.399Z,103140.94
2023-02-11T00:15:52.735Z,103145.97
2023-02-11T00:18:21.058Z,103143.28
2023-02-11T00:20:49.073Z,103145.97
2023-02-11T00:23:17.195Z,103132.25
2023-02-11T00:25:45.119Z,103134.47
2023-02-11T00:28:13.085Z,103128.84
2023-02-11T00:30:41.033Z,103135.91
2023-02-11T00:33:09.286Z,103139.38
2023-02-11T00:35:38.743Z,103131.59
2023-02-11T00:38:06.946Z,103136.66
2023-02-11T00:40:35.090Z,103133.06
2023-02-11T00:43:03.406Z,103137.41
2023-02-11T00:45:31.582Z,103134.00
2023-02-11T00:47:59.150Z,103137.44
2023-02-11T00:50:27.019Z,103147.16
2023-02-11T00:52:55.170Z,103143.56
2023-02-11T00:55:23.546Z,103145.38
2023-02-11T00:57:51.229Z,103135.06
2023-02-11T01:00:20.126Z,103135.59
2023-02-11T01:03:06.116Z,103133.63
2023-02-11T01:06:10.573Z,103132.19
2023-02-11T01:08:38.793Z,103132.34
2023-02-11T01:11:13.020Z,103128.72
2023-02-11T01:13:40.580Z,103134.50
2023-02-11T01:16:08.496Z,103129.81
2023-02-11T01:18:55.161Z,103121.53
2023-02-11T01:21:23.300Z,103124.56
2023-02-11T01:23:51.562Z,103133.41
2023-02-11T01:26:19.678Z,103125.69
2023-02-11T01:28:47.805Z,103128.03
2023-02-11T01:31:15.237Z,103124.81
2023-02-11T01:33:42.933Z,103119.38
2023-02-11T01:36:12.092Z,103118.47
2023-02-11T01:38:41.140Z,103113.44
2023-02-11T01:41:10.351Z,103115.44
2023-02-11T01:43:40.137Z,103114.69
2023-02-11T01:46:31.692Z,103112.53
2023-02-11T01:49:11.917Z,103118.66
2023-02-11T01:51:45.084Z,103116.13
2023-02-11T01:54:32.144Z,103111.63
2023-02-11T01:57:17.731Z,103113.44
2023-02-11T02:00:08.242Z,103109.28
2023-02-11T02:02:43.842Z,103109.81
2023-02-11T02:05:40.908Z,103101.72
2023-02-11T02:08:22.249Z,103106.94
2023-02-11T02:10:53.305Z,103098.09
2023-02-11T02:13:21.865Z,103098.84
2023-02-11T02:16:15.171Z,103100.28
2023-02-11T02:19:00.678Z,103105.66
2023-02-11T02:22:20.570Z,103106.00
2023-02-11T02:25:13.899Z,103097.75
2023-02-11T02:27:50.167Z,103101.50
2023-02-11T02:30:23.619Z,103107.63
2023-02-11T02:32:50.231Z,103109.59
2023-02-11T02:35:37.874Z,103103.28
2023-02-11T02:38:31.152Z,103093.72
2023-02-11T02:41:19.560Z,103097.72
2023-02-11T02:43:49.936Z,103102.03
2023-02-11T02:46:24.194Z,103087.25
2023-02-11T02:48:52.839Z,103088.34
2023-02-11T02:51:25.725Z,103089.81
2023-02-11T02:54:14.159Z,103089.59
2023-02-11T02:57:08.846Z,103087.56
2023-02-11T02:59:45.403Z,103079.47
2023-02-11T03:02:32.372Z,103073.88
2023-02-11T03:05:24.654Z,103076.78
2023-02-11T03:07:58.853Z,103072.78
2023-02-11T03:10:53.703Z,103061.63
2023-02-11T03:13:24.777Z,103062.50
2023-02-11T03:15:53.360Z,103069.53
2023-02-11T03:18:22.955Z,103070.97
2023-02-11T03:20:53.400Z,103056.56
2023-02-11T03:23:39.158Z,103053.16
2023-02-11T03:26:22.306Z,103048.31
2023-02-11T03:29:03.411Z,103051.19
2023-02-11T03:32:08.062Z,103057.09
2023-02-11T03:34:57.990Z,103050.06
2023-02-11T03:37:33.112Z,103050.25
2023-02-11T03:40:04.509Z,103045.75
2023-02-11T03:42:59.035Z,103037.44
2023-02-11T03:45:26.768Z,103041.44
2023-02-11T03:48:01.877Z,103039.63
2023-02-11T03:50:29.057Z,103033.09
2023-02-11T03:52:56.964Z,103038.84
2023-02-11T03:55:26.021Z,103024.06
2023-02-11T03:57:53.847Z,103028.94
2023-02-11T04:00:21.020Z,103027.13
2023-02-11T04:02:48.598Z,103026.59
2023-02-11T04:05:16.684Z,103021.50
2023-02-11T04:07:44.954Z,103025.63
2023-02-11T04:10:12.828Z,103030.25
2023-02-11T04:12:40.947Z,103034.22
2023-02-11T04:15:10.782Z,103027.38
2023-02-11T04:17:38.520Z,103029.38
2023-02-11T04:20:07.832Z,103024.03
2023-02-11T04:22:35.892Z,103016.13
2023-02-11T04:25:04.163Z,103018.66
2023-02-11T04:27:32.170Z,103015.78
2023-02-11T04:30:00.380Z,103011.63
2023-02-11T04:32:27.958Z,103012.38
2023-02-11T04:34:55.722Z,103010.53
2023-02-11T04:37:23.780Z,103011.44
2023-02-11T04:39:54.512Z,103005.25
2023-02-11T04:42:22.388Z,103002.34
2023-02-11T04:44:50.094Z,103005.63
2023-02-11T04:47:17.705Z,102995.38
2023-02-11T04:49:45.430Z,102999.69
2023-02-11T04:52:12.610Z,102997.66
2023-02-11T04:54:40.745Z,102992.81
2023-02-11T04:57:08.823Z,102996.56
2023-02-11T04:59:36.897Z,103004.31
2023-02-11T05:02:04.518Z,103003.22
2023-02-11T05:04:32.540Z,102994.72
2023-02-11T05:07:00.797Z,102997.19
2023-02-11T05:09:28.997Z,102999.66
2023-02-11T05:11:56.610Z,103020.31
2023-02-11T05:14:24.608Z,103017.66
2023-02-11T05:16:53.390Z,103002.91
2023-02-11T05:19:20.919Z,103006.56
2023-02-11T05:22:01.813Z,103005.84
2023-02-11T05:24:33.965Z,103011.94
2023-02-11T05:27:02.486Z,103007.59
2023-02-11T05:29:30.703Z,103011.88
2023-02-11T05:31:59.998Z,103010.06
2023-02-11T05:34:28.108Z,103012.91
2023-02-11T05:36:56.168Z,103019.16
2023-02-11T05:39:24.194Z,103008.91
2023-02-11T05:41:52.656Z,103009.50
2023-02-11T05:44:20.625Z,103007.88
2023-02-11T05:46:49.263Z,102994.19
2023-02-11T05:49:18.151Z,102979.47
2023-02-11T05:51:45.605Z,102985.41
2023-02-11T05:54:13.445Z,102996.50
2023-02-11T05:56:43.795Z,103000.09
2023-02-11T05:59:13.716Z,102991.59
2023-02-11T06:01:41.430Z,102999.16
2023-02-11T06:04:09.108Z,103002.78
2023-02-11T06:06:36.746Z,103010.72
2023-02-11T06:09:05.120Z,103001.69
2023-02-11T06:11:32.840Z,102989.44
2023-02-11T06:14:01.564Z,102996.63
2023-02-11T06:16:30.030Z,102997.53
2023-02-11T06:18:57.915Z,102993.56
2023-02-11T06:21:36.341Z,102980.13
2023-02-11T06:24:10.724Z,102986.84
2023-02-11T06:26:39.376Z,102992.56
2023-02-11T06:29:07.043Z,102983.56
2023-02-11T06:31:34.970Z,102981.28
2023-02-11T06:34:05.415Z,102981.50
2023-02-11T06:36:33.444Z,102984.00
2023-02-11T06:39:01.622Z,102992.47
2023-02-11T06:41:29.382Z,102986.19
2023-02-11T06:43:57.932Z,102985.69
2023-02-11T06:46:26.634Z,102994.59
2023-02-11T06:48:54.800Z,102985.41
2023-02-11T06:51:22.369Z,102989.75
2023-02-11T06:53:50.369Z,102987.59
2023-02-11T06:56:19.479Z,102983.81
2023-02-11T06:58:47.438Z,102984.31
2023-02-11T07:01:16.190Z,102984.72
2023-02-11T07:03:45.494Z,102984.41
2023-02-11T07:06:15.452Z,102982.28
2023-02-11T07:08:43.501Z,102986.81
2023-02-11T07:11:12.552Z,102997.81
2023-02-11T07:13:40.615Z,102996.03
2023-02-11T07:16:09.937Z,102984.13
2023-02-11T07:18:39.914Z,102994.44
2023-02-11T07:21:09.557Z,102990.63
2023-02-11T07:23:37.752Z,103000.72
2023-02-11T07:26:09.428Z,102993.72
2023-02-11T07:28:37.403Z,102996.78
2023-02-11T07:31:15.117Z,103004.88
2023-02-11T07:33:42.383Z,103007.22
2023-02-11T07:36:10.533Z,103014.41
2023-02-11T07:38:38.240Z,103012.25
2023-02-11T07:41:29.184Z,103013.88
2023-02-11T07:43:56.787Z,103009.34
2023-02-11T07:46:26.197Z,103010.19
2023-02-11T07:48:53.134Z,103017.78
2023-02-11T07:51:23.084Z,103013.78
2023-02-11T07:53:52.025Z,103021.34
2023-02-11T07:56:20.010Z,103024.94
2023-02-11T07:58:48.140Z,103016.34
2023-02-11T08:01:22.480Z,103016.63
2023-02-11T08:03:50.711Z,103015.84
2023-02-11T08:06:20.377Z,103010.53
2023-02-11T08:08:47.580Z,103013.16
2023-02-11T08:11:15.086Z,103007.72
2023-02-11T08:13:41.922Z,103010.91
2023-02-11T08:16:10.065Z,103012.84
2023-02-11T08:18:38.158Z,103018.53
2023-02-11T08:21:08.878Z,103022.19
2023-02-11T08:23:39.999Z,103022.38
2023-02-11T08:26:16.855Z,103018.50
2023-02-11T08:28:45.645Z,103025.78
2023-02-11T08:31:34.319Z,103027.84
2023-02-11T08:34:02.496Z,103022.00
2023-02-11T08:36:55.305Z,103016.13
2023-02-11T08:39:22.809Z,103017.44
2023-02-11T08:41:53.476Z,103017.25
2023-02-11T08:44:21.427Z,103012.84
2023-02-11T08:46:49.506Z,103016.94
2023-02-11T08:49:17.033Z,103018.47
2023-02-11T08:51:44.916Z,103022.41
2023-02-11T08:54:12.918Z,103023.75
2023-02-11T08:56:40.124Z,103035.78
2023-02-11T08:59:09.463Z,103029.28
2023-02-11T09:01:37.593Z,103038.03
2023-02-11T09:04:05.671Z,103026.09
2023-02-11T09:06:34.029Z,103042.63
2023-02-11T09:09:01.714Z,103041.75
2023-02-11T09:11:30.942Z,103043.28
2023-02-11T09:13:59.485Z,103050.03
2023-02-11T09:16:29.314Z,103043.22
2023-02-11T09:19:01.332Z,103038.94
2023-02-11T09:21:28.313Z,103044.38
2023-02-11T09:23:55.511Z,103034.81
2023-02-11T09:26:24.655Z,103041.56
2023-02-11T09:28:52.514Z,103038.13
2023-02-11T09:31:22.815Z,103032.75
2023-02-11T09:33:51.968Z,103031.88
2023-02-11T09:36:24.741Z,103029.34
2023-02-11T09:38:52.020Z,103027.97
2023-02-11T09:41:25.053Z,103019.44
2023-02-11T09:43:56.854Z,103024.94
2023-02-11T09:46:24.331Z,103024.44
2023-02-11T09:48:52.954Z,103021.59
2023-02-11T09:51:23.908Z,103028.13
2023-02-11T09:53:52.011Z,103015.22
2023-02-11T09:56:20.310Z,103021.41
2023-02-11T09:58:48.356Z,103027.38
2023-02-11T10:01:56.603Z,103030.97
2023-02-11T10:04:55.994Z,103034.41
2023-02-11T10:07:38.532Z,103036.13
2023-02-11T10:10:08.622Z,103042.66
2023-02-11T10:12:41.643Z,103037.84
2023-02-11T10:15:44.171Z,103034.06
2023-02-11T10:18:47.541Z,103037.72
2023-02-11T10:21:47.938Z,103038.47
2023-02-11T10:24:15.385Z,103039.16
2023-02-11T10:26:48.199Z,103043.44
2023-02-11T10:29:54.534Z,103044.16
2023-02-11T10:32:28.822Z,103036.50
2023-02-11T10:34:57.119Z,103024.81
2023-02-11T10:37:25.425Z,103027.78
2023-02-11T10:39:53.199Z,103036.72
2023-02-11T10:42:20.789Z,103025.41
2023-02-11T10:44:58.481Z,103019.88
2023-02-11T10:47:31.447Z,103031.53
2023-02-11T10:50:03.626Z,103018.78
2023-02-11T10:52:30.800Z,103022.41
2023-02-11T10:55:23.300Z,103016.00
2023-02-11T10:58:01.422Z,103005.53
2023-02-11T11:00:36.221Z,103008.47
2023-02-11T11:03:05.438Z,103006.53
2023-02-11T11:05:35.396Z,103000.38
2023-02-11T11:08:04.886Z,102990.25
2023-02-11T11:10:43.732Z,102986.13
2023-02-11T11:13:30.978Z,102980.63
2023-02-11T11:16:13.403Z,102978.72
2023-02-11T11:18:42.025Z,102974.81
2023-02-11T11:21:23.834Z,102973.81
2023-02-11T11:24:22.899Z,102967.94
2023-02-11T11:26:52.029Z,102956.78
2023-02-11T11:29:23.598Z,102958.75
2023-02-11T11:32:01.404Z,102948.16
2023-02-11T11:34:38.769Z,102935.09
2023-02-11T11:37:41.383Z,102931.44
2023-02-11T11:40:49.433Z,102924.44
2023-02-11T11:43:23.127Z,102924.91
2023-02-11T11:45:58.537Z,102932.72
2023-02-11T11:48:32.038Z,102936.63
2023-02-11T11:51:00.854Z,102930.47
2023-02-11T11:53:34.418Z,102920.91
2023-02-11T11:56:13.316Z,102918.44
2023-02-11T11:58:41.889Z,102922.00
2023-02-11T12:01:36.735Z,102915.84
2023-02-11T12:04:31.843Z,102913.72
2023-02-11T12:07:27.726Z,102915.06
2023-02-11T12:10:30.726Z,102916.28
2023-02-11T12:13:00.780Z,102916.19
2023-02-11T12:15:49.314Z,102910.47
2023-02-11T12:18:38.765Z,102901.13
2023-02-11T12:21:22.878Z,102889.69
2023-02-11T12:23:55.635Z,102884.88
2023-02-11T12:26:48.445Z,102889.34
2023-02-11T12:29:27.665Z,102877.25
2023-02-11T12:32:00.683Z,102876.28
2023-02-11T12:34:57.368Z,102866.25
2023-02-11T12:38:12.398Z,102867.19
2023-02-11T12:41:03.217Z,102867.53
2023-02-11T12:43:42.697Z,102857.78
2023-02-11T12:46:21.090Z,102861.91
2023-02-11T12:49:18.876Z,102851.94
2023-02-11T12:51:55.024Z,102851.94
2023-02-11T12:54:32.933Z,102858.47
2023-02-11T12:57:07.460Z,102847.47
2023-02-11T12:59:34.283Z,102842.31
2023-02-11T13:02:04.752Z,102836.06
2023-02-11T13:04:53.204Z,102844.66
2023-02-11T13:07:31.678Z,102830.94
2023-02-11T13:10:02.349Z,102832.75
2023-02-11T13:12:49.181Z,102825.03
2023-02-11T13:15:16.204Z,102824.81
2023-02-11T13:18:20.060Z,102827.88
2023-02-11T13:20:46.730Z,102823.81
2023-02-11T13:23:43.427Z,102821.84
2023-02-11T13:26:13.586Z,102819.19
2023-02-11T13:28:55.164Z,102822.41
2023-02-11T13:31:27.053Z,102825.47
2023-02-11T13:33:55.187Z,102815.53
2023-02-11T13:36:28.680Z,102820.41
2023-02-11T13:39:28.045Z,102817.09
2023-02-11T13:42:04.043Z,102807.50
2023-02-11T13:44:32.856Z,102807.16
2023-02-11T13:47:05.821Z,102798.25
2023-02-11T13:49:38.047Z,102796.38
2023-02-11T13:52:06.037Z,102788.78
2023-02-11T13:54:38.096Z,102792.06
2023-02-11T13:57:20.492Z,102800.56
2023-02-11T14:00:21.773Z,102793.06
2023-02-11T14:03:18.138Z,102787.47
2023-02-11T14:06:27.718Z,102788.56
2023-02-11T14:09:09.840Z,102786.25
2023-02-11T14:11:48.406Z,102775.25
2023-02-11T14:14:24.697Z,102771.69
2023-02-11T14:17:00.654Z,102773.47
2023-02-11T14:19:38.477Z,102774.81
2023-02-11T14:22:08.556Z,102765.06
2023-02-11T14:24:35.318Z,102765.31
2023-02-11T14:27:12.369Z,102759.00
2023-02-11T14:29:48.208Z,102762.03
2023-02-11T14:32:27.406Z,102760.03
2023-02-11T14:35:01.652Z,102762.84
2023-02-11T14:37:50.971Z,102770.69
2023-02-11T14:40:28.827Z,102747.50
2023-02-11T14:42:56.577Z,102749.16
2023-02-11T14:45:28.136Z,102748.56
2023-02-11T14:48:08.797Z,102749.44
2023-02-11T14:51:34.094Z,102747.41
2023-02-11T14:54:11.410Z,102748.69
2023-02-11T14:56:43.603Z,102745.59
2023-02-11T14:59:21.801Z,102745.38
2023-02-11T15:01:54.705Z,102736.09
2023-02-11T15:04:27.321Z,102732.84
2023-02-11T15:06:55.559Z,102728.47
2023-02-11T15:09:53.799Z,102730.38
2023-02-11T15:12:24.238Z,102726.44
2023-02-11T15:14:53.695Z,102731.59
2023-02-11T15:17:22.872Z,102732.44
2023-02-11T15:19:53.376Z,102731.69
2023-02-11T15:22:23.306Z,102723.97
2023-02-11T15:25:10.898Z,102722.72
2023-02-11T15:27:59.713Z,102720.03
2023-02-11T15:30:34.510Z,102720.09
2023-02-11T15:33:06.518Z,102720.69
2023-02-11T15:35:40.143Z,102712.38
2023-02-11T15:38:08.136Z,102700.81
2023-02-11T15:40:37.178Z,102705.91
2023-02-11T15:43:05.008Z,102709.88
2023-02-11T15:45:53.826Z,102705.25
2023-02-11T15:48:35.162Z,102700.00
2023-02-11T15:51:13.507Z,102703.38
2023-02-11T15:53:43.510Z,102702.22
2023-02-11T15:56:15.955Z,102698.50
2023-02-11T15:58:45.773Z,102707.31
2023-02-11T16:01:12.928Z,102696.88
2023-02-11T16:03:40.698Z,102699.31
2023-02-11T16:06:47.557Z,102705.03
2023-02-11T16:09:14.541Z,102696.78
2023-02-11T16:11:47.387Z,102692.72
2023-02-11T16:14:23.291Z,102692.22
2023-02-11T16:16:51.312Z,102695.56
2023-02-11T16:19:25.658Z,102691.16
2023-02-11T16:21:53.912Z,102695.03
2023-02-11T16:24:40.779Z,102701.69
2023-02-11T16:27:29.819Z,102690.09
2023-02-11T16:29:57.825Z,102690.47
2023-02-11T16:32:29.696Z,102696.53
2023-02-11T16:35:00.004Z,102690.84
2023-02-11T16:37:27.894Z,102698.09
2023-02-11T16:39:56.631Z,102698.84
2023-02-11T16:42:24.708Z,102698.56
2023-02-11T16:44:52.840Z,102705.94
2023-02-11T16:47:49.062Z,102698.66
2023-02-11T16:50:21.318Z,102695.53
2023-02-11T16:52:48.469Z,102706.91
2023-02-11T16:55:19.123Z,102718.81
2023-02-11T16:57:47.210Z,102719.31
2023-02-11T17:00:19.306Z,102709.34
2023-02-11T17:02:47.288Z,102717.53
2023-02-11T17:05:20.140Z,102712.09
2023-02-11T17:07:48.289Z,102717.75
2023-02-11T17:10:18.239Z,102719.75
2023-02-11T17:12:46.323Z,102718.75
2023-02-11T17:15:14.509Z,102711.47
2023-02-11T17:17:42.600Z,102714.09
2023-02-11T17:20:32.151Z,102715.78
2023-02-11T17:23:00.112Z,102721.34
2023-02-11T17:25:27.893Z,102721.47
2023-02-11T17:27:56.337Z,102716.00
2023-02-11T17:30:25.191Z,102718.34
2023-02-11T17:32:53.990Z,102723.47
2023-02-11T17:35:22.041Z,102731.06
2023-02-11T17:37:49.802Z,102728.66
2023-02-11T17:40:18.574Z,102726.59
2023-02-11T17:42:47.011Z,102729.16
2023-02-11T17:45:15.379Z,102725.06
2023-02-11T17:47:43.356Z,102734.41
2023-02-11T17:50:12.176Z,102736.59
2023-02-11T17:52:40.024Z,102736.19
2023-02-11T17:55:12.081Z,102728.56
2023-02-11T17:57:39.478Z,102731.00
2023-02-11T18:00:07.824Z,102724.22
2023-02-11T18:02:35.688Z,102734.09
2023-02-11T18:05:04.427Z,102732.94
2023-02-11T18:07:32.179Z,102728.84
2023-02-11T18:10:00.237Z,102724.25
2023-02-11T18:12:28.291Z,102721.81
2023-02-11T18:14:57.984Z,102711.59
2023-02-11T18:17:25.456Z,102702.78
2023-02-11T18:19:56.294Z,102704.59
2023-02-11T18:22:24.580Z,102712.09
2023-02-11T18:24:55.166Z,102718.75
2023-02-11T18:27:22.984Z,102727.28
2023-02-11T18:29:50.832Z,102724.63
2023-02-11T18:32:18.979Z,102721.56
2023-02-11T18:34:46.554Z,102713.59
2023-02-11T18:37:14.420Z,102717.81
2023-02-11T18:39:42.398Z,102719.47
2023-02-11T18:42:10.314Z,102710.53
2023-02-11T18:44:38.988Z,102723.91
2023-02-11T18:47:06.856Z,102726.84
2023-02-11T18:49:36.260Z,102716.09
2023-02-11T18:52:04.484Z,102714.94
2023-02-11T18:54:32.441Z,102713.78
2023-02-11T18:57:00.320Z,102707.63
2023-02-11T18:59:27.818Z,102712.31
2023-02-11T19:01:55.467Z,102715.16
2023-02-11T19:04:23.433Z,102721.25
2023-02-11T19:06:51.321Z,102724.28
2023-02-11T19:09:19.687Z,102724.00
2023-02-11T19:11:47.460Z,102739.38
2023-02-11T19:14:15.954Z,102737.03
2023-02-11T19:16:46.906Z,102736.38
2023-02-11T19:19:14.789Z,102739.75
2023-02-11T19:21:43.676Z,102745.56
2023-02-11T19:24:11.402Z,102746.75
2023-02-11T19:26:38.604Z,102736.84
2023-02-11T19:29:06.339Z,102731.75
2023-02-11T19:31:34.060Z,102732.25
2023-02-11T19:34:01.768Z,102732.00
2023-02-11T19:36:29.547Z,102732.31
2023-02-11T19:38:59.351Z,102729.13
2023-02-11T19:41:27.307Z,102723.63
2023-02-11T19:43:56.797Z,102731.69
2023-02-11T19:46:25.466Z,102728.84
2023-02-11T19:48:53.723Z,102722.31
2023-02-11T19:51:21.882Z,102725.50
2023-02-11T19:53:51.541Z,102723.81
2023-02-11T19:56:20.889Z,102722.84
2023-02-11T19:58:48.734Z,102715.91
2023-02-11T20:01:20.754Z,102717.81
2023-02-11T20:03:52.654Z,102718.94
2023-02-11T20:06:23.566Z,102722.78
2023-02-11T20:08:58.576Z,102727.75
2023-02-11T20:11:26.965Z,102727.38
2023-02-11T20:13:55.524Z,102731.16
2023-02-11T20:16:36.849Z,102729.44
2023-02-11T20:19:16.916Z,102722.88
2023-02-11T20:21:46.912Z,102714.22
2023-02-11T20:24:16.292Z,102714.25
2023-02-11T20:26:45.317Z,102719.69
2023-02-11T20:29:13.379Z,102716.84
2023-02-11T20:31:41.717Z,102713.69
2023-02-11T20:34:10.612Z,102719.69
2023-02-11T20:36:39.331Z,102715.06
2023-02-11T20:39:06.876Z,102720.91
2023-02-11T20:41:35.496Z,102707.44
2023-02-11T20:44:04.820Z,102716.84
2023-02-11T20:46:33.165Z,102717.25
2023-02-11T20:49:01.031Z,102714.69
2023-02-11T20:51:29.784Z,102718.84
2023-02-11T20:53:57.550Z,102706.03
2023-02-11T20:56:27.549Z,102704.19
2023-02-11T20:58:55.923Z,102703.03
2023-02-11T21:01:25.483Z,102702.22
2023-02-11T21:03:57.980Z,102713.34
2023-02-11T21:06:27.121Z,102710.88
2023-02-11T21:08:54.987Z,102707.50
2023-02-11T21:11:22.573Z,102708.50
2023-02-11T21:13:51.143Z,102713.00
2023-02-11T21:16:20.643Z,102714.81
2023-02-11T21:18:49.512Z,102718.13
2023-02-11T21:21:18.220Z,102713.66
2023-02-11T21:23:45.640Z,102710.78
2023-02-11T21:26:13.734Z,102708.22
2023-02-11T21:28:41.869Z,102715.19
2023-02-11T21:31:10.238Z,102718.03
2023-02-11T21:33:38.075Z,102716.53
2023-02-11T21:36:08.078Z,102721.94
2023-02-11T21:38:36.031Z,102724.78
2023-02-11T21:41:07.090Z,102720.16
2023-02-11T21:43:38.995Z,102712.34
2023-02-11T21:46:10.616Z,102706.94
2023-02-11T21:48:38.973Z,102711.00
2023-02-11T21:51:22.506Z,102715.66
2023-02-11T21:53:54.513Z,102715.97
2023-02-11T21:56:22.219Z,102710.00
2023-02-11T21:58:53.698Z,102714.03
2023-02-11T22:01:24.197Z,102709.00
2023-02-11T22:03:52.341Z,102710.06
2023-02-11T22:06:47.423Z,102704.69
2023-02-11T22:09:15.106Z,102718.78
2023-02-11T22:11:42.754Z,102712.66
2023-02-11T22:14:10.737Z,102713.84
2023-02-11T22:16:38.803Z,102715.94
2023-02-11T22:19:07.649Z,102710.56
2023-02-11T22:21:38.511Z,102711.63
2023-02-11T22:24:07.289Z,102715.34
2023-02-11T22:26:34.964Z,102707.13
2023-02-11T22:29:03.081Z,102709.53
2023-02-11T22:31:32.232Z,102713.09
2023-02-11T22:34:00.330Z,102717.00
2023-02-11T22:36:33.595Z,102715.22
2023-02-11T22:39:02.235Z,102712.22
2023-02-11T22:41:29.416Z,102717.75
2023-02-11T22:43:57.878Z,102713.41
2023-02-11T22:46:26.116Z,102715.19
2023-02-11T22:48:54.508Z,102704.47
2023-02-11T22:51:25.773Z,102711.78
2023-02-11T22:53:58.226Z,102714.00
2023-02-11T22:56:26.517Z,102705.31
2023-02-11T22:58:56.577Z,102706.97
2023-02-11T23:01:24.234Z,102707.41
2023-02-11T23:03:52.271Z,102712.75
2023-02-11T23:06:19.420Z,102708.72
2023-02-11T23:08:46.582Z,102701.66
2023-02-11T23:11:32.006Z,102704.38
2023-02-11T23:13:59.896Z,102709.31
2023-02-11T23:16:31.919Z,102711.88
2023-02-11T23:19:01.057Z,102714.84
2023-02-11T23:21:30.553Z,102710.81
2023-02-11T23:24:03.829Z,102703.22
2023-02-11T23:26:32.118Z,102715.47
2023-02-11T23:29:00.568Z,102712.59
2023-02-11T23:31:35.542Z,102710.81
2023-02-11T23:34:09.424Z,102703.19
2023-02-11T23:36:37.705Z,102698.56
2023-02-11T23:39:05.360Z,102700.22
2023-02-11T23:41:33.536Z,102703.81
2023-02-11T23:44:01.221Z,102710.50
2023-02-11T23:46:30.365Z,102709.75
2023-02-11T23:48:57.684Z,102702.28
2023-02-11T23:51:25.830Z,102713.63
2023-02-11T23:53:52.898Z,102705.41
2023-02-11T23:56:25.381Z,102700.09
2023-02-11T23:58:53.686Z,102706.81
